sensor_id;sensor_type;location;lat;lon;timestamp;temperature;humidity
67163;DHT22;54092;53.088;8.850;2023-02-15T00:01:20;3.80;99.90
67163;DHT22;54092;53.088;8.850;2023-02-15T00:03:48;3.80;99.90
67163;DHT22;54092;53.088;8.850;2023-02-15T00:06:14;3.70;99.90
67163;DHT22;54092;53.088;8.850;2023-02-15T00:08:40;3.70;99.90
67163;DHT22;54092;53.088;8.850;2023-02-15T00:11:07;3.70;99.90
67163;DHT22;54092;53.088;8.850;2023-02-15T00:13:32;3.70;99.90
67163;DHT22;54092;53.088;8.850;2023-02-15T00:16:05;3.60;99.90
67163;DHT22;54092;53.088;8.850;2023-02-15T00:18:31;3.60;99.90
67163;DHT22;54092;53.088;8.850;2023-02-15T00:20:57;3.60;99.90
67163;DHT22;54092;53.088;8.850;2023-02-15T00:23:23;3.50;99.90
67163;DHT22;54092;53.088;8.850;2023-02-15T00:25:49;3.50;99.90
67163;DHT22;54092;53.088;8.850;2023-02-15T00:28:15;3.50;99.90
67163;DHT22;54092;53.088;8.850;2023-02-15T00:30:41;3.40;99.90
67163;DHT22;54092;53.088;8.850;2023-02-15T00:33:06;3.40;99.90
67163;DHT22;54092;53.088;8.850;2023-02-15T00:35:32;3.40;99.90
67163;DHT22;54092;53.088;8.850;2023-02-15T00:37:57;3.40;99.90
67163;DHT22;54092;53.088;8.850;2023-02-15T00:40:23;3.40;99.90
67163;DHT22;54092;53.088;8.850;2023-02-15T00:42:48;3.30;99.90
67163;DHT22;54092;53.088;8.850;2023-02-15T00:45:14;3.30;99.90
67163;DHT22;54092;53.088;8.850;2023-02-15T00:47:39;3.30;99.90
67163;DHT22;54092;53.088;8.850;2023-02-15T00:50:05;3.30;99.90
67163;DHT22;54092;53.088;8.850;2023-02-15T00:52:31;3.20;99.90
67163;DHT22;54092;53.088;8.850;2023-02-15T00:54:57;3.20;99.90
67163;DHT22;54092;53.088;8.850;2023-02-15T00:57:22;3.20;99.90
67163;DHT22;54092;53.088;8.850;2023-02-15T00:59:48;3.20;99.90
67163;DHT22;54092;53.088;8.850;2023-02-15T01:02:13;3.30;99.90
67163;DHT22;54092;53.088;8.850;2023-02-15T01:04:39;3.20;99.90
67163;DHT22;54092;53.088;8.850;2023-02-15T01:07:04;3.20;99.90
67163;DHT22;54092;53.088;8.850;2023-02-15T01:09:30;3.20;99.90
67163;DHT22;54092;53.088;8.850;2023-02-15T01:11:55;3.30;99.90
67163;DHT22;54092;53.088;8.850;2023-02-15T01:14:21;3.30;99.90
67163;DHT22;54092;53.088;8.850;2023-02-15T01:16:46;3.30;99.90
67163;DHT22;54092;53.088;8.850;2023-02-15T01:19:12;3.20;99.90
67163;DHT22;54092;53.088;8.850;2023-02-15T01:21:38;3.20;99.90
67163;DHT22;54092;53.088;8.850;2023-02-15T01:24:11;3.20;99.90
67163;DHT22;54092;53.088;8.850;2023-02-15T01:26:37;3.20;99.90
67163;DHT22;54092;53.088;8.850;2023-02-15T01:29:02;3.10;99.90
67163;DHT22;54092;53.088;8.850;2023-02-15T01:31:28;3.10;99.90
67163;DHT22;54092;53.088;8.850;2023-02-15T01:33:53;3.10;99.90
67163;DHT22;54092;53.088;8.850;2023-02-15T01:36:19;3.10;99.90
67163;DHT22;54092;53.088;8.850;2023-02-15T01:38:45;3.00;99.90
67163;DHT22;54092;53.088;8.850;2023-02-15T01:41:11;2.90;99.90
67163;DHT22;54092;53.088;8.850;2023-02-15T01:43:57;2.90;99.90
67163;DHT22;54092;53.088;8.850;2023-02-15T01:46:37;2.80;99.90
67163;DHT22;54092;53.088;8.850;2023-02-15T01:49:10;2.70;99.90
67163;DHT22;54092;53.088;8.850;2023-02-15T01:51:38;2.70;99.90
67163;DHT22;54092;53.088;8.850;2023-02-15T01:54:10;2.60;99.90
67163;DHT22;54092;53.088;8.850;2023-02-15T01:56:37;2.40;99.90
67163;DHT22;54092;53.088;8.850;2023-02-15T01:59:08;2.40;99.90
67163;DHT22;54092;53.088;8.850;2023-02-15T02:01:34;2.30;99.90
67163;DHT22;54092;53.088;8.850;2023-02-15T02:04:15;2.20;99.90
67163;DHT22;54092;53.088;8.850;2023-02-15T02:06:45;2.10;99.90
67163;DHT22;54092;53.088;8.850;2023-02-15T02:09:11;2.10;99.90
67163;DHT22;54092;53.088;8.850;2023-02-15T02:11:39;2.10;99.90
67163;DHT22;54092;53.088;8.850;2023-02-15T02:14:05;2.10;99.90
67163;DHT22;54092;53.088;8.850;2023-02-15T02:22:15;2.00;99.90
67163;DHT22;54092;53.088;8.850;2023-02-15T02:31:22;1.90;99.90
67163;DHT22;54092;53.088;8.850;2023-02-15T02:34:19;1.90;99.90
67163;DHT22;54092;53.088;8.850;2023-02-15T02:40:00;1.90;99.90
67163;DHT22;54092;53.088;8.850;2023-02-15T02:42:39;1.80;99.90
67163;DHT22;54092;53.088;8.850;2023-02-15T02:45:13;1.80;99.90
67163;DHT22;54092;53.088;8.850;2023-02-15T02:47:56;1.80;99.90
67163;DHT22;54092;53.088;8.850;2023-02-15T02:50:29;1.80;99.90
67163;DHT22;54092;53.088;8.850;2023-02-15T02:52:57;1.80;99.90
67163;DHT22;54092;53.088;8.850;2023-02-15T02:55:31;1.80;99.90
67163;DHT22;54092;53.088;8.850;2023-02-15T03:00:43;1.70;99.90
67163;DHT22;54092;53.088;8.850;2023-02-15T03:03:14;1.70;99.90
67163;DHT22;54092;53.088;8.850;2023-02-15T03:05:44;1.70;99.90
67163;DHT22;54092;53.088;8.850;2023-02-15T03:08:12;1.70;99.90
67163;DHT22;54092;53.088;8.850;2023-02-15T03:10:39;1.70;99.90
67163;DHT22;54092;53.088;8.850;2023-02-15T03:13:06;1.70;99.90
67163;DHT22;54092;53.088;8.850;2023-02-15T03:15:36;1.70;99.90
67163;DHT22;54092;53.088;8.850;2023-02-15T03:18:27;1.70;99.90
67163;DHT22;54092;53.088;8.850;2023-02-15T03:20:55;1.70;99.90
67163;DHT22;54092;53.088;8.850;2023-02-15T03:23:23;1.70;99.90
67163;DHT22;54092;53.088;8.850;2023-02-15T03:25:53;1.60;99.90
67163;DHT22;54092;53.088;8.850;2023-02-15T03:28:27;1.60;99.90
67163;DHT22;54092;53.088;8.850;2023-02-15T03:30:57;1.60;99.90
67163;DHT22;54092;53.088;8.850;2023-02-15T03:33:26;1.60;99.90
67163;DHT22;54092;53.088;8.850;2023-02-15T03:36:06;1.50;99.90
67163;DHT22;54092;53.088;8.850;2023-02-15T03:38:45;1.50;99.90
67163;DHT22;54092;53.088;8.850;2023-02-15T03:41:14;1.40;99.90
67163;DHT22;54092;53.088;8.850;2023-02-15T03:44:04;1.40;99.90
67163;DHT22;54092;53.088;8.850;2023-02-15T03:49:14;1.20;99.90
67163;DHT22;54092;53.088;8.850;2023-02-15T03:51:44;1.10;99.90
67163;DHT22;54092;53.088;8.850;2023-02-15T03:54:12;1.10;99.90
67163;DHT22;54092;53.088;8.850;2023-02-15T03:56:41;1.20;99.90
67163;DHT22;54092;53.088;8.850;2023-02-15T03:59:07;1.20;99.90
67163;DHT22;54092;53.088;8.850;2023-02-15T04:02:24;1.20;99.90
67163;DHT22;54092;53.088;8.850;2023-02-15T04:04:52;1.20;99.90
67163;DHT22;54092;53.088;8.850;2023-02-15T04:07:21;1.20;99.90
67163;DHT22;54092;53.088;8.850;2023-02-15T04:09:46;1.30;99.90
67163;DHT22;54092;53.088;8.850;2023-02-15T04:12:30;1.30;99.90
67163;DHT22;54092;53.088;8.850;2023-02-15T04:14:56;1.20;99.90
67163;DHT22;54092;53.088;8.850;2023-02-15T04:17:40;1.20;99.90
67163;DHT22;54092;53.088;8.850;2023-02-15T04:20:06;1.20;99.90
67163;DHT22;54092;53.088;8.850;2023-02-15T04:22:50;1.20;99.90
67163;DHT22;54092;53.088;8.850;2023-02-15T04:25:34;1.20;99.90
67163;DHT22;54092;53.088;8.850;2023-02-15T04:28:00;1.10;99.90
67163;DHT22;54092;53.088;8.850;2023-02-15T04:30:26;1.10;99.90
67163;DHT22;54092;53.088;8.850;2023-02-15T04:32:52;1.10;99.90
67163;DHT22;54092;53.088;8.850;2023-02-15T04:35:18;1.00;99.90
67163;DHT22;54092;53.088;8.850;2023-02-15T04:37:44;1.00;99.90
67163;DHT22;54092;53.088;8.850;2023-02-15T04:40:13;1.00;99.90
67163;DHT22;54092;53.088;8.850;2023-02-15T04:42:39;1.00;99.90
67163;DHT22;54092;53.088;8.850;2023-02-15T04:45:05;0.90;99.90
67163;DHT22;54092;53.088;8.850;2023-02-15T04:47:31;0.90;99.90
67163;DHT22;54092;53.088;8.850;2023-02-15T04:49:57;0.90;99.90
67163;DHT22;54092;53.088;8.850;2023-02-15T04:52:23;0.90;99.90
67163;DHT22;54092;53.088;8.850;2023-02-15T04:54:48;0.90;99.90
67163;DHT22;54092;53.088;8.850;2023-02-15T04:57:14;0.80;99.90
67163;DHT22;54092;53.088;8.850;2023-02-15T04:59:39;0.90;99.90
67163;DHT22;54092;53.088;8.850;2023-02-15T05:02:05;0.90;99.90
67163;DHT22;54092;53.088;8.850;2023-02-15T05:04:31;0.90;99.90
67163;DHT22;54092;53.088;8.850;2023-02-15T05:06:56;0.90;99.90
67163;DHT22;54092;53.088;8.850;2023-02-15T05:09:22;0.90;99.90
67163;DHT22;54092;53.088;8.850;2023-02-15T05:11:47;0.80;99.90
67163;DHT22;54092;53.088;8.850;2023-02-15T05:14:13;0.80;99.90
67163;DHT22;54092;53.088;8.850;2023-02-15T05:16:39;0.80;99.90
67163;DHT22;54092;53.088;8.850;2023-02-15T05:19:04;0.70;99.90
67163;DHT22;54092;53.088;8.850;2023-02-15T05:21:31;0.80;99.90
67163;DHT22;54092;53.088;8.850;2023-02-15T05:23:57;0.70;99.90
67163;DHT22;54092;53.088;8.850;2023-02-15T05:26:24;0.70;99.90
67163;DHT22;54092;53.088;8.850;2023-02-15T05:29:08;0.70;99.90
67163;DHT22;54092;53.088;8.850;2023-02-15T05:31:34;0.70;99.90
67163;DHT22;54092;53.088;8.850;2023-02-15T05:34:00;0.70;99.90
67163;DHT22;54092;53.088;8.850;2023-02-15T05:36:26;0.80;99.90
67163;DHT22;54092;53.088;8.850;2023-02-15T05:38:52;0.70;99.90
67163;DHT22;54092;53.088;8.850;2023-02-15T05:41:17;0.70;99.90
67163;DHT22;54092;53.088;8.850;2023-02-15T05:43:43;0.70;99.90
67163;DHT22;54092;53.088;8.850;2023-02-15T05:46:09;0.70;99.90
67163;DHT22;54092;53.088;8.850;2023-02-15T05:48:35;0.70;99.90
67163;DHT22;54092;53.088;8.850;2023-02-15T05:51:03;0.70;99.90
67163;DHT22;54092;53.088;8.850;2023-02-15T05:53:31;0.80;99.90
67163;DHT22;54092;53.088;8.850;2023-02-15T05:55:57;0.80;99.90
67163;DHT22;54092;53.088;8.850;2023-02-15T05:58:32;0.70;99.90
67163;DHT22;54092;53.088;8.850;2023-02-15T06:00:58;0.70;99.90
67163;DHT22;54092;53.088;8.850;2023-02-15T06:03:24;0.70;99.90
67163;DHT22;54092;53.088;8.850;2023-02-15T06:05:51;0.70;99.90
67163;DHT22;54092;53.088;8.850;2023-02-15T06:08:17;0.70;99.90
67163;DHT22;54092;53.088;8.850;2023-02-15T06:10:45;0.70;99.90
67163;DHT22;54092;53.088;8.850;2023-02-15T06:13:11;0.70;99.90
67163;DHT22;54092;53.088;8.850;2023-02-15T06:15:36;0.70;99.90
67163;DHT22;54092;53.088;8.850;2023-02-15T06:18:02;0.70;99.90
67163;DHT22;54092;53.088;8.850;2023-02-15T06:20:27;0.60;99.90
67163;DHT22;54092;53.088;8.850;2023-02-15T06:22:53;0.60;99.90
67163;DHT22;54092;53.088;8.850;2023-02-15T06:25:18;0.60;99.90
67163;DHT22;54092;53.088;8.850;2023-02-15T06:27:44;0.50;99.90
67163;DHT22;54092;53.088;8.850;2023-02-15T06:30:10;0.50;99.90
67163;DHT22;54092;53.088;8.850;2023-02-15T06:32:36;0.50;99.90
67163;DHT22;54092;53.088;8.850;2023-02-15T06:35:02;0.40;99.90
67163;DHT22;54092;53.088;8.850;2023-02-15T06:37:28;0.40;99.90
67163;DHT22;54092;53.088;8.850;2023-02-15T06:39:53;0.50;99.90
67163;DHT22;54092;53.088;8.850;2023-02-15T06:42:19;0.40;99.90
67163;DHT22;54092;53.088;8.850;2023-02-15T06:44:45;0.40;99.90
67163;DHT22;54092;53.088;8.850;2023-02-15T06:47:10;0.40;99.90
67163;DHT22;54092;53.088;8.850;2023-02-15T06:49:37;0.40;99.90
67163;DHT22;54092;53.088;8.850;2023-02-15T06:52:03;0.40;99.90
67163;DHT22;54092;53.088;8.850;2023-02-15T06:54:28;0.50;99.90
67163;DHT22;54092;53.088;8.850;2023-02-15T06:56:54;0.50;99.90
67163;DHT22;54092;53.088;8.850;2023-02-15T06:59:20;0.50;99.90
67163;DHT22;54092;53.088;8.850;2023-02-15T07:01:45;0.60;99.90
67163;DHT22;54092;53.088;8.850;2023-02-15T07:04:11;0.60;99.90
67163;DHT22;54092;53.088;8.850;2023-02-15T07:06:36;0.70;99.90
67163;DHT22;54092;53.088;8.850;2023-02-15T07:09:02;0.70;99.90
67163;DHT22;54092;53.088;8.850;2023-02-15T07:11:28;0.70;99.90
67163;DHT22;54092;53.088;8.850;2023-02-15T07:14:12;0.70;99.90
67163;DHT22;54092;53.088;8.850;2023-02-15T07:16:38;0.70;99.90
67163;DHT22;54092;53.088;8.850;2023-02-15T07:19:03;0.70;99.90
67163;DHT22;54092;53.088;8.850;2023-02-15T07:21:29;0.70;99.90
67163;DHT22;54092;53.088;8.850;2023-02-15T07:23:56;0.70;99.90
67163;DHT22;54092;53.088;8.850;2023-02-15T07:26:23;0.70;99.90
67163;DHT22;54092;53.088;8.850;2023-02-15T07:28:48;0.70;99.90
67163;DHT22;54092;53.088;8.850;2023-02-15T07:31:14;0.70;99.90
67163;DHT22;54092;53.088;8.850;2023-02-15T07:33:39;0.70;99.90
67163;DHT22;54092;53.088;8.850;2023-02-15T07:36:05;0.80;99.90
67163;DHT22;54092;53.088;8.850;2023-02-15T07:38:34;0.80;99.90
67163;DHT22;54092;53.088;8.850;2023-02-15T07:41:01;0.90;99.90
67163;DHT22;54092;53.088;8.850;2023-02-15T07:43:27;0.90;99.90
67163;DHT22;54092;53.088;8.850;2023-02-15T07:45:53;1.00;99.90
67163;DHT22;54092;53.088;8.850;2023-02-15T07:48:19;1.00;99.90
67163;DHT22;54092;53.088;8.850;2023-02-15T07:50:44;1.10;99.90
67163;DHT22;54092;53.088;8.850;2023-02-15T07:53:10;1.10;99.90
67163;DHT22;54092;53.088;8.850;2023-02-15T07:55:35;1.10;99.90
67163;DHT22;54092;53.088;8.850;2023-02-15T07:58:01;1.20;99.90
67163;DHT22;54092;53.088;8.850;2023-02-15T08:00:27;1.20;99.90
67163;DHT22;54092;53.088;8.850;2023-02-15T08:02:55;1.30;99.90
67163;DHT22;54092;53.088;8.850;2023-02-15T08:05:40;1.30;99.90
67163;DHT22;54092;53.088;8.850;2023-02-15T08:08:08;1.40;99.90
67163;DHT22;54092;53.088;8.850;2023-02-15T08:10:35;1.40;99.90
67163;DHT22;54092;53.088;8.850;2023-02-15T08:13:20;1.40;99.90
67163;DHT22;54092;53.088;8.850;2023-02-15T08:15:51;1.40;99.90
67163;DHT22;54092;53.088;8.850;2023-02-15T08:18:17;1.50;99.90
67163;DHT22;54092;53.088;8.850;2023-02-15T08:20:42;1.60;99.90
67163;DHT22;54092;53.088;8.850;2023-02-15T08:23:08;1.70;99.90
67163;DHT22;54092;53.088;8.850;2023-02-15T08:25:33;1.90;99.90
67163;DHT22;54092;53.088;8.850;2023-02-15T08:27:59;2.00;99.90
67163;DHT22;54092;53.088;8.850;2023-02-15T08:30:24;2.20;99.90
67163;DHT22;54092;53.088;8.850;2023-02-15T08:32:50;2.50;99.90
67163;DHT22;54092;53.088;8.850;2023-02-15T08:35:15;2.90;99.90
67163;DHT22;54092;53.088;8.850;2023-02-15T08:37:41;3.60;99.90
67163;DHT22;54092;53.088;8.850;2023-02-15T08:40:07;4.20;99.90
67163;DHT22;54092;53.088;8.850;2023-02-15T08:42:33;4.80;99.90
67163;DHT22;54092;53.088;8.850;2023-02-15T08:44:59;5.50;99.90
67163;DHT22;54092;53.088;8.850;2023-02-15T08:47:24;6.30;99.90
67163;DHT22;54092;53.088;8.850;2023-02-15T08:49:50;6.90;99.90
67163;DHT22;54092;53.088;8.850;2023-02-15T08:52:16;7.70;99.90
67163;DHT22;54092;53.088;8.850;2023-02-15T08:54:42;7.70;99.90
67163;DHT22;54092;53.088;8.850;2023-02-15T08:57:07;7.70;99.90
67163;DHT22;54092;53.088;8.850;2023-02-15T08:59:33;8.00;99.90
67163;DHT22;54092;53.088;8.850;2023-02-15T09:01:58;8.30;99.90
67163;DHT22;54092;53.088;8.850;2023-02-15T09:04:24;8.70;99.90
67163;DHT22;54092;53.088;8.850;2023-02-15T09:06:50;9.10;99.90
67163;DHT22;54092;53.088;8.850;2023-02-15T09:09:16;9.60;99.90
67163;DHT22;54092;53.088;8.850;2023-02-15T09:11:45;10.30;99.90
67163;DHT22;54092;53.088;8.850;2023-02-15T09:14:15;10.60;99.90
67163;DHT22;54092;53.088;8.850;2023-02-15T09:16:44;10.70;99.90
67163;DHT22;54092;53.088;8.850;2023-02-15T09:19:14;10.50;99.90
67163;DHT22;54092;53.088;8.850;2023-02-15T09:21:40;10.40;99.90
67163;DHT22;54092;53.088;8.850;2023-02-15T09:24:09;10.10;99.90
67163;DHT22;54092;53.088;8.850;2023-02-15T09:26:38;9.90;99.90
67163;DHT22;54092;53.088;8.850;2023-02-15T09:29:05;10.20;99.90
67163;DHT22;54092;53.088;8.850;2023-02-15T09:31:33;10.20;99.90
67163;DHT22;54092;53.088;8.850;2023-02-15T09:34:00;10.40;99.90
67163;DHT22;54092;53.088;8.850;2023-02-15T09:36:32;10.70;99.90
67163;DHT22;54092;53.088;8.850;2023-02-15T09:38:58;11.20;99.90
67163;DHT22;54092;53.088;8.850;2023-02-15T09:44:57;11.50;99.90
67163;DHT22;54092;53.088;8.850;2023-02-15T09:58:20;13.30;99.90
67163;DHT22;54092;53.088;8.850;2023-02-15T10:01:03;13.60;99.90
67163;DHT22;54092;53.088;8.850;2023-02-15T10:06:53;13.90;99.90
67163;DHT22;54092;53.088;8.850;2023-02-15T10:26:35;15.60;99.90
67163;DHT22;54092;53.088;8.850;2023-02-15T10:31:48;15.50;99.90
67163;DHT22;54092;53.088;8.850;2023-02-15T10:37:07;15.60;99.90
67163;DHT22;54092;53.088;8.850;2023-02-15T10:45:48;15.90;99.90
67163;DHT22;54092;53.088;8.850;2023-02-15T10:51:19;15.60;99.90
67163;DHT22;54092;53.088;8.850;2023-02-15T10:54:11;15.00;99.90
67163;DHT22;54092;53.088;8.850;2023-02-15T10:56:48;15.10;99.90
67163;DHT22;54092;53.088;8.850;2023-02-15T11:02:25;15.00;99.90
67163;DHT22;54092;53.088;8.850;2023-02-15T11:05:31;15.30;99.90
67163;DHT22;54092;53.088;8.850;2023-02-15T11:08:03;15.60;99.90
67163;DHT22;54092;53.088;8.850;2023-02-15T11:10:59;15.30;99.90
67163;DHT22;54092;53.088;8.850;2023-02-15T11:13:33;15.20;99.90
67163;DHT22;54092;53.088;8.850;2023-02-15T11:21:02;16.30;99.90
67163;DHT22;54092;53.088;8.850;2023-02-15T11:23:30;16.60;99.90
67163;DHT22;54092;53.088;8.850;2023-02-15T11:26:03;16.70;99.90
67163;DHT22;54092;53.088;8.850;2023-02-15T11:28:37;16.20;99.90
67163;DHT22;54092;53.088;8.850;2023-02-15T11:31:18;16.40;99.90
67163;DHT22;54092;53.088;8.850;2023-02-15T11:33:51;16.90;99.90
67163;DHT22;54092;53.088;8.850;2023-02-15T11:36:27;17.00;99.90
67163;DHT22;54092;53.088;8.850;2023-02-15T11:39:01;16.60;99.90
67163;DHT22;54092;53.088;8.850;2023-02-15T11:41:33;16.70;99.90
67163;DHT22;54092;53.088;8.850;2023-02-15T11:44:16;17.10;99.90
67163;DHT22;54092;53.088;8.850;2023-02-15T11:46:42;17.30;99.90
67163;DHT22;54092;53.088;8.850;2023-02-15T11:49:31;17.50;99.90
67163;DHT22;54092;53.088;8.850;2023-02-15T11:51:59;17.60;99.90
67163;DHT22;54092;53.088;8.850;2023-02-15T11:54:31;17.50;99.90
67163;DHT22;54092;53.088;8.850;2023-02-15T11:57:19;17.70;99.90
67163;DHT22;54092;53.088;8.850;2023-02-15T12:00:14;17.90;99.90
67163;DHT22;54092;53.088;8.850;2023-02-15T12:02:44;17.40;99.90
67163;DHT22;54092;53.088;8.850;2023-02-15T12:05:15;17.30;99.90
67163;DHT22;54092;53.088;8.850;2023-02-15T12:07:46;17.00;99.90
67163;DHT22;54092;53.088;8.850;2023-02-15T12:10:25;16.80;99.90
67163;DHT22;54092;53.088;8.850;2023-02-15T12:13:13;16.80;99.90
67163;DHT22;54092;53.088;8.850;2023-02-15T12:15:48;16.40;99.90
67163;DHT22;54092;53.088;8.850;2023-02-15T12:18:24;16.50;99.90
67163;DHT22;54092;53.088;8.850;2023-02-15T12:20:59;16.60;99.90
67163;DHT22;54092;53.088;8.850;2023-02-15T12:23:28;16.60;99.90
67163;DHT22;54092;53.088;8.850;2023-02-15T12:25:55;15.90;99.90
67163;DHT22;54092;53.088;8.850;2023-02-15T12:28:36;15.40;99.90
67163;DHT22;54092;53.088;8.850;2023-02-15T12:31:09;15.30;99.90
67163;DHT22;54092;53.088;8.850;2023-02-15T12:33:43;15.60;99.90
67163;DHT22;54092;53.088;8.850;2023-02-15T12:36:20;15.80;99.90
67163;DHT22;54092;53.088;8.850;2023-02-15T12:41:38;15.40;99.90
67163;DHT22;54092;53.088;8.850;2023-02-15T12:44:20;15.80;99.90
67163;DHT22;54092;53.088;8.850;2023-02-15T12:47:05;16.20;99.90
67163;DHT22;54092;53.088;8.850;2023-02-15T12:49:33;16.30;99.90
67163;DHT22;54092;53.088;8.850;2023-02-15T12:52:01;16.10;99.90
67163;DHT22;54092;53.088;8.850;2023-02-15T12:57:02;15.80;99.90
67163;DHT22;54092;53.088;8.850;2023-02-15T12:59:48;16.20;99.90
67163;DHT22;54092;53.088;8.850;2023-02-15T13:02:43;16.20;99.90
67163;DHT22;54092;53.088;8.850;2023-02-15T13:05:14;16.90;99.90
67163;DHT22;54092;53.088;8.850;2023-02-15T13:07:46;16.90;99.90
67163;DHT22;54092;53.088;8.850;2023-02-15T13:10:23;17.50;99.90
67163;DHT22;54092;53.088;8.850;2023-02-15T13:12:49;17.70;99.90
67163;DHT22;54092;53.088;8.850;2023-02-15T13:15:23;17.90;99.90
67163;DHT22;54092;53.088;8.850;2023-02-15T13:17:50;18.20;99.90
67163;DHT22;54092;53.088;8.850;2023-02-15T13:20:20;17.60;99.90
67163;DHT22;54092;53.088;8.850;2023-02-15T13:22:50;17.40;99.90
67163;DHT22;54092;53.088;8.850;2023-02-15T13:25:19;17.40;99.90
67163;DHT22;54092;53.088;8.850;2023-02-15T13:27:48;17.50;99.90
67163;DHT22;54092;53.088;8.850;2023-02-15T13:30:42;17.30;99.90
67163;DHT22;54092;53.088;8.850;2023-02-15T13:33:06;16.60;99.90
67163;DHT22;54092;53.088;8.850;2023-02-15T13:35:44;16.30;99.90
67163;DHT22;54092;53.088;8.850;2023-02-15T13:38:40;15.80;99.90
67163;DHT22;54092;53.088;8.850;2023-02-15T13:41:14;15.00;99.90
67163;DHT22;54092;53.088;8.850;2023-02-15T13:44:15;14.60;99.90
67163;DHT22;54092;53.088;8.850;2023-02-15T13:49:46;14.30;99.90
67163;DHT22;54092;53.088;8.850;2023-02-15T13:57:33;14.30;99.90
67163;DHT22;54092;53.088;8.850;2023-02-15T14:00:21;14.40;99.90
67163;DHT22;54092;53.088;8.850;2023-02-15T14:14:10;15.70;99.90
67163;DHT22;54092;53.088;8.850;2023-02-15T14:21:55;14.60;99.90
67163;DHT22;54092;53.088;8.850;2023-02-15T14:24:53;14.50;99.90
67163;DHT22;54092;53.088;8.850;2023-02-15T14:33:06;13.60;99.90
67163;DHT22;54092;53.088;8.850;2023-02-15T14:35:32;13.30;99.90
67163;DHT22;54092;53.088;8.850;2023-02-15T14:40:59;12.90;99.90
67163;DHT22;54092;53.088;8.850;2023-02-15T14:43:47;13.00;99.90
67163;DHT22;54092;53.088;8.850;2023-02-15T14:46:49;13.00;99.90
67163;DHT22;54092;53.088;8.850;2023-02-15T14:49:22;12.80;99.90
67163;DHT22;54092;53.088;8.850;2023-02-15T14:56:47;12.40;99.90
67163;DHT22;54092;53.088;8.850;2023-02-15T15:04:56;12.10;99.90
67163;DHT22;54092;53.088;8.850;2023-02-15T15:07:22;12.00;99.90
67163;DHT22;54092;53.088;8.850;2023-02-15T15:10:02;11.90;99.90
67163;DHT22;54092;53.088;8.850;2023-02-15T15:15:00;11.80;99.90
67163;DHT22;54092;53.088;8.850;2023-02-15T15:20:00;11.70;99.90
67163;DHT22;54092;53.088;8.850;2023-02-15T15:22:27;11.70;99.90
67163;DHT22;54092;53.088;8.850;2023-02-15T15:24:58;11.50;99.90
67163;DHT22;54092;53.088;8.850;2023-02-15T15:38:46;11.10;99.90
67163;DHT22;54092;53.088;8.850;2023-02-15T15:44:09;10.90;99.90
67163;DHT22;54092;53.088;8.850;2023-02-15T15:47:03;10.80;99.90
67163;DHT22;54092;53.088;8.850;2023-02-15T15:49:34;10.80;99.90
67163;DHT22;54092;53.088;8.850;2023-02-15T15:52:13;10.70;99.90
67163;DHT22;54092;53.088;8.850;2023-02-15T15:54:40;10.60;99.90
67163;DHT22;54092;53.088;8.850;2023-02-15T15:57:18;10.60;99.90
67163;DHT22;54092;53.088;8.850;2023-02-15T15:59:45;10.50;99.90
67163;DHT22;54092;53.088;8.850;2023-02-15T16:02:15;10.40;99.90
67163;DHT22;54092;53.088;8.850;2023-02-15T16:04:44;10.30;99.90
67163;DHT22;54092;53.088;8.850;2023-02-15T16:09:59;10.20;99.90
67163;DHT22;54092;53.088;8.850;2023-02-15T16:12:27;10.00;99.90
67163;DHT22;54092;53.088;8.850;2023-02-15T16:14:55;9.90;99.90
67163;DHT22;54092;53.088;8.850;2023-02-15T16:19:49;9.80;99.90
67163;DHT22;54092;53.088;8.850;2023-02-15T16:22:19;9.70;99.90
67163;DHT22;54092;53.088;8.850;2023-02-15T16:25:17;9.60;99.90
67163;DHT22;54092;53.088;8.850;2023-02-15T16:27:47;9.60;99.90
67163;DHT22;54092;53.088;8.850;2023-02-15T16:32:47;9.40;99.90
67163;DHT22;54092;53.088;8.850;2023-02-15T16:35:18;9.40;99.90
67163;DHT22;54092;53.088;8.850;2023-02-15T16:37:43;9.40;99.90
67163;DHT22;54092;53.088;8.850;2023-02-15T16:40:35;9.30;99.90
67163;DHT22;54092;53.088;8.850;2023-02-15T16:43:06;9.20;99.90
67163;DHT22;54092;53.088;8.850;2023-02-15T16:45:36;9.20;99.90
67163;DHT22;54092;53.088;8.850;2023-02-15T16:48:07;9.10;99.90
67163;DHT22;54092;53.088;8.850;2023-02-15T16:50:36;9.10;99.90
67163;DHT22;54092;53.088;8.850;2023-02-15T16:53:04;9.00;99.90
67163;DHT22;54092;53.088;8.850;2023-02-15T16:55:40;9.00;99.90
67163;DHT22;54092;53.088;8.850;2023-02-15T16:58:11;8.90;99.90
67163;DHT22;54092;53.088;8.850;2023-02-15T17:00:38;8.80;99.90
67163;DHT22;54092;53.088;8.850;2023-02-15T17:03:20;8.70;99.90
67163;DHT22;54092;53.088;8.850;2023-02-15T17:05:57;8.70;99.90
67163;DHT22;54092;53.088;8.850;2023-02-15T17:08:28;8.70;99.90
67163;DHT22;54092;53.088;8.850;2023-02-15T17:13:29;8.50;99.90
67163;DHT22;54092;53.088;8.850;2023-02-15T17:18:38;8.50;99.90
67163;DHT22;54092;53.088;8.850;2023-02-15T17:21:13;8.50;99.90
67163;DHT22;54092;53.088;8.850;2023-02-15T17:24:01;8.40;99.90
67163;DHT22;54092;53.088;8.850;2023-02-15T17:26:36;8.40;99.90
67163;DHT22;54092;53.088;8.850;2023-02-15T17:29:36;8.30;99.90
67163;DHT22;54092;53.088;8.850;2023-02-15T17:32:02;8.30;99.90
67163;DHT22;54092;53.088;8.850;2023-02-15T17:34:50;8.30;99.90
67163;DHT22;54092;53.088;8.850;2023-02-15T17:39:53;8.10;99.90
67163;DHT22;54092;53.088;8.850;2023-02-15T17:42:19;8.10;99.90
67163;DHT22;54092;53.088;8.850;2023-02-15T17:44:44;8.10;99.90
67163;DHT22;54092;53.088;8.850;2023-02-15T17:47:15;8.10;99.90
67163;DHT22;54092;53.088;8.850;2023-02-15T17:49:42;8.10;99.90
67163;DHT22;54092;53.088;8.850;2023-02-15T17:52:11;8.10;99.90
67163;DHT22;54092;53.088;8.850;2023-02-15T17:54:38;8.00;99.90
67163;DHT22;54092;53.088;8.850;2023-02-15T17:57:23;8.00;99.90
67163;DHT22;54092;53.088;8.850;2023-02-15T17:59:48;8.00;99.90
67163;DHT22;54092;53.088;8.850;2023-02-15T18:02:34;8.00;99.90
67163;DHT22;54092;53.088;8.850;2023-02-15T18:05:18;7.90;99.90
67163;DHT22;54092;53.088;8.850;2023-02-15T18:08:03;7.90;99.90
67163;DHT22;54092;53.088;8.850;2023-02-15T18:10:47;7.90;99.90
67163;DHT22;54092;53.088;8.850;2023-02-15T18:13:31;7.80;99.90
67163;DHT22;54092;53.088;8.850;2023-02-15T18:15:56;7.80;99.90
67163;DHT22;54092;53.088;8.850;2023-02-15T18:18:22;7.80;99.90
67163;DHT22;54092;53.088;8.850;2023-02-15T18:20:49;7.70;99.90
67163;DHT22;54092;53.088;8.850;2023-02-15T18:23:14;7.70;99.90
67163;DHT22;54092;53.088;8.850;2023-02-15T18:25:40;7.60;99.90
67163;DHT22;54092;53.088;8.850;2023-02-15T18:28:07;7.60;99.90
67163;DHT22;54092;53.088;8.850;2023-02-15T18:30:35;7.60;99.90
67163;DHT22;54092;53.088;8.850;2023-02-15T18:33:01;7.50;99.90
67163;DHT22;54092;53.088;8.850;2023-02-15T18:35:31;7.50;99.90
67163;DHT22;54092;53.088;8.850;2023-02-15T18:37:58;7.40;99.90
67163;DHT22;54092;53.088;8.850;2023-02-15T18:40:26;7.40;99.90
67163;DHT22;54092;53.088;8.850;2023-02-15T18:42:52;7.40;99.90
67163;DHT22;54092;53.088;8.850;2023-02-15T18:45:24;7.30;99.90
67163;DHT22;54092;53.088;8.850;2023-02-15T18:47:52;7.30;99.90